Terminal Aerodrome Forecast
Issued by NWS

Home | Current Version | Previous Version | Text Only | Print | Product List | Glossary On
Versions: 1 2 3 4 5 6 7 8 9 10 11 12 13
000
FTUS46 KSEW 270500 RRA
TAFCLM
TAF
KCLM 270550Z 2706/2806 26006KT P6SM BKN250
     FM271200 25004KT P6SM BKN020 BKN200
     FM271800 30006KT P6SM SCT030 BKN060 BKN200
     FM272300 30006KT P6SM VCSH BKN030 OVC070
     FM280300 29008KT P6SM -RA SCT015 OVC025=

USA.gov is the U.S. government's official web portal to all federal, state and local government web resources and services.